createdAt,value
2023-04-12T00:00:46.394Z,7.05
2023-04-12T00:03:12.927Z,7.05
2023-04-12T00:05:39.410Z,7.02
2023-04-12T00:08:06.223Z,6.98
2023-04-12T00:10:32.681Z,6.99
2023-04-12T00:12:59.138Z,6.92
2023-04-12T00:15:25.736Z,6.91
2023-04-12T00:17:52.255Z,6.91
2023-04-12T00:20:18.779Z,6.85
2023-04-12T00:22:45.532Z,6.89
2023-04-12T00:25:12.098Z,6.90
2023-04-12T00:27:39.231Z,6.90
2023-04-12T00:30:08.275Z,6.90
2023-04-12T00:32:35.374Z,6.89
2023-04-12T00:35:02.026Z,6.83
2023-04-12T00:37:28.638Z,6.89
2023-04-12T00:39:55.090Z,6.84
2023-04-12T00:42:21.564Z,6.81
2023-04-12T00:44:47.986Z,6.82
2023-04-12T00:47:14.522Z,6.79
2023-04-12T00:49:41.336Z,6.83
2023-04-12T00:52:10.092Z,6.80
2023-04-12T00:54:37.369Z,6.76
2023-04-12T00:57:04.161Z,6.77
2023-04-12T00:59:30.967Z,6.72
2023-04-12T01:01:58.828Z,6.69
2023-04-12T01:04:26.497Z,6.67
2023-04-12T01:07:32.511Z,6.71
2023-04-12T01:10:16.934Z,6.73
2023-04-12T01:13:05.147Z,6.70
2023-04-12T01:15:37.808Z,6.68
2023-04-12T01:18:22.062Z,6.64
2023-04-12T01:21:13.646Z,6.61
2023-04-12T01:24:01.635Z,6.64
2023-04-12T01:26:47.835Z,6.61
2023-04-12T01:29:17.032Z,6.63
2023-04-12T01:31:53.094Z,6.66
2023-04-12T01:34:24.924Z,6.59
2023-04-12T01:36:52.875Z,6.59
2023-04-12T01:39:20.224Z,6.62
2023-04-12T01:41:49.346Z,6.54
2023-04-12T01:44:16.952Z,6.54
2023-04-12T01:46:44.896Z,6.55
2023-04-12T01:49:12.998Z,6.56
2023-04-12T01:51:50.845Z,6.56
2023-04-12T01:54:28.132Z,6.54
2023-04-12T01:56:58.337Z,6.54
2023-04-12T01:59:34.826Z,6.58
2023-04-12T02:02:03.537Z,6.54
2023-04-12T02:04:33.523Z,6.52
2023-04-12T02:07:00.013Z,6.49
2023-04-12T02:09:26.473Z,6.53
2023-04-12T02:11:52.913Z,6.54
2023-04-12T02:14:19.372Z,6.51
2023-04-12T02:17:13.127Z,6.53
2023-04-12T02:19:40.020Z,6.51
2023-04-12T02:22:08.161Z,6.50
2023-04-12T02:24:34.651Z,6.49
2023-04-12T02:27:01.431Z,6.49
2023-04-12T02:29:28.685Z,6.49
2023-04-12T02:31:56.243Z,6.49
2023-04-12T02:34:25.160Z,6.48
2023-04-12T02:36:59.965Z,6.47
2023-04-12T02:39:26.413Z,6.44
2023-04-12T02:41:53.770Z,6.42
2023-04-12T02:44:20.255Z,6.48
2023-04-12T02:47:00.808Z,6.47
2023-04-12T02:49:27.688Z,6.47
2023-04-12T02:51:55.136Z,6.45
2023-04-12T02:54:27.654Z,6.41
2023-04-12T02:56:56.077Z,6.43
2023-04-12T02:59:44.165Z,6.43
2023-04-12T03:02:15.822Z,6.43
2023-04-12T03:04:46.796Z,6.39
2023-04-12T03:07:19.337Z,6.40
2023-04-12T03:09:50.496Z,6.40
2023-04-12T03:12:18.588Z,6.40
2023-04-12T03:15:01.094Z,6.42
2023-04-12T03:17:28.124Z,6.43
2023-04-12T03:19:58.000Z,6.42
2023-04-12T03:22:25.654Z,6.41
2023-04-12T03:24:56.993Z,6.41
2023-04-12T03:27:23.455Z,6.39
2023-04-12T03:29:52.281Z,6.38
2023-04-12T03:32:21.089Z,6.38
2023-04-12T03:34:47.857Z,6.39
2023-04-12T03:37:18.112Z,6.38
2023-04-12T03:39:47.892Z,6.37
2023-04-12T03:42:32.231Z,6.38
2023-04-12T03:45:08.001Z,6.35
2023-04-12T03:47:34.745Z,6.34
2023-04-12T03:50:11.666Z,6.34
2023-04-12T03:52:41.717Z,6.32
2023-04-12T03:55:08.603Z,6.33
2023-04-12T03:57:36.374Z,6.29
2023-04-12T04:00:04.803Z,6.30
2023-04-12T04:02:44.893Z,6.28
2023-04-12T04:05:13.201Z,6.32
2023-04-12T04:07:41.404Z,6.29
2023-04-12T04:10:09.793Z,6.26
2023-04-12T04:12:39.729Z,6.27
2023-04-12T04:15:10.198Z,6.22
2023-04-12T04:17:36.864Z,6.25
2023-04-12T04:20:05.617Z,6.28
2023-04-12T04:22:34.568Z,6.31
2023-04-12T04:25:03.888Z,6.31
2023-04-12T04:27:34.264Z,6.32
2023-04-12T04:30:05.014Z,6.34
2023-04-12T04:32:33.900Z,6.37
2023-04-12T04:35:00.798Z,6.36
2023-04-12T04:37:37.497Z,6.34
2023-04-12T04:40:08.803Z,6.36
2023-04-12T04:42:39.666Z,6.37
2023-04-12T04:45:14.544Z,6.41
2023-04-12T04:47:44.025Z,6.33
2023-04-12T04:50:10.652Z,6.38
2023-04-12T04:52:39.330Z,6.36
2023-04-12T04:55:11.479Z,6.38
2023-04-12T04:57:43.991Z,6.32
2023-04-12T05:00:11.704Z,6.25
2023-04-12T05:02:42.887Z,6.38
2023-04-12T05:05:13.727Z,6.45
2023-04-12T05:07:40.696Z,6.51
2023-04-12T05:10:07.824Z,6.57
2023-04-12T05:12:38.289Z,6.67
2023-04-12T05:15:11.562Z,6.68
2023-04-12T05:17:40.862Z,6.68
2023-04-12T05:20:09.588Z,6.73
2023-04-12T05:22:38.408Z,6.77
2023-04-12T05:25:06.219Z,6.77
2023-04-12T05:27:37.688Z,6.83
2023-04-12T05:30:08.135Z,6.86
2023-04-12T05:32:34.919Z,6.87
2023-04-12T05:35:01.634Z,6.92
2023-04-12T05:37:29.017Z,6.95
2023-04-12T05:39:55.628Z,6.97
2023-04-12T05:42:22.059Z,7.01
2023-04-12T05:44:50.015Z,6.99
2023-04-12T05:47:17.223Z,7.02
2023-04-12T05:49:43.640Z,7.04
2023-04-12T05:52:11.551Z,7.04
2023-04-12T05:54:38.787Z,7.05
2023-04-12T05:57:06.083Z,7.09
2023-04-12T05:59:32.898Z,7.06
2023-04-12T06:02:01.187Z,7.06
2023-04-12T06:04:42.013Z,7.09
2023-04-12T06:07:13.852Z,7.12
2023-04-12T06:09:42.131Z,7.14
2023-04-12T06:12:08.860Z,7.17
2023-04-12T06:14:35.961Z,7.18
2023-04-12T06:17:02.666Z,7.19
2023-04-12T06:19:29.089Z,7.23
2023-04-12T06:21:55.749Z,7.26
2023-04-12T06:24:22.382Z,7.28
2023-04-12T06:26:48.953Z,7.35
2023-04-12T06:29:17.145Z,7.41
2023-04-12T06:31:45.526Z,7.48
2023-04-12T06:34:12.029Z,7.55
2023-04-12T06:36:41.412Z,7.65
2023-04-12T06:39:09.572Z,7.75
2023-04-12T06:41:35.969Z,7.83
2023-04-12T06:44:02.428Z,7.91
2023-04-12T06:46:29.593Z,7.99
2023-04-12T06:48:56.124Z,8.11
2023-04-12T06:51:22.915Z,8.15
2023-04-12T06:53:49.354Z,8.19
2023-04-12T06:56:18.333Z,8.22
2023-04-12T06:58:45.687Z,8.18
2023-04-12T07:01:13.569Z,8.14
2023-04-12T07:03:40.719Z,8.22
2023-04-12T07:06:17.743Z,8.30
2023-04-12T07:08:50.685Z,8.39
2023-04-12T07:11:21.384Z,8.45
2023-04-12T07:13:49.062Z,8.49
2023-04-12T07:16:15.612Z,8.46
2023-04-12T07:18:42.156Z,8.51
2023-04-12T07:21:08.763Z,8.67
2023-04-12T07:23:35.257Z,8.70
2023-04-12T07:26:02.305Z,8.81
2023-04-12T07:28:28.902Z,8.85
2023-04-12T07:30:55.453Z,8.94
2023-04-12T07:33:22.121Z,8.97
2023-04-12T07:35:48.809Z,9.10
2023-04-12T07:38:16.824Z,9.31
2023-04-12T07:40:43.540Z,9.51
2023-04-12T07:43:10.022Z,9.73
2023-04-12T07:45:37.506Z,9.84
2023-04-12T07:48:04.414Z,9.91
2023-04-12T07:50:31.089Z,9.99
2023-04-12T07:53:17.266Z,10.04
2023-04-12T07:55:43.736Z,9.96
2023-04-12T07:58:10.287Z,9.94
2023-04-12T08:00:36.717Z,10.01
2023-04-12T08:03:03.416Z,10.10
2023-04-12T08:05:30.268Z,10.13
2023-04-12T08:07:57.771Z,10.10
2023-04-12T08:10:24.605Z,9.97
2023-04-12T08:12:51.090Z,9.91
2023-04-12T08:15:17.493Z,9.89
2023-04-12T08:17:44.092Z,9.92
2023-04-12T08:20:11.204Z,9.96
2023-04-12T08:22:37.750Z,10.06
2023-04-12T08:25:04.474Z,10.19
2023-04-12T08:27:30.972Z,10.36
2023-04-12T08:29:57.685Z,10.40
2023-04-12T08:32:24.200Z,10.38
2023-04-12T08:34:50.653Z,10.28
2023-04-12T08:37:17.683Z,10.29
2023-04-12T08:39:44.313Z,10.33
2023-04-12T08:42:11.105Z,9.86
2023-04-12T08:44:39.035Z,9.52
2023-04-12T08:47:07.743Z,9.57
2023-04-12T08:49:35.194Z,9.72
2023-04-12T08:52:06.949Z,9.65
2023-04-12T08:54:34.455Z,9.52
2023-04-12T08:57:02.875Z,9.39
2023-04-12T08:59:30.367Z,9.44
2023-04-12T09:01:57.940Z,9.37
2023-04-12T09:04:26.428Z,9.41
2023-04-12T09:06:53.294Z,9.12
2023-04-12T09:09:19.716Z,9.06
2023-04-12T09:11:46.127Z,9.16
2023-04-12T09:14:23.575Z,9.03
2023-04-12T09:16:51.262Z,9.09
2023-04-12T09:19:31.955Z,8.98
2023-04-12T09:21:58.615Z,9.06
2023-04-12T09:24:25.118Z,9.20
2023-04-12T09:27:03.084Z,9.20
2023-04-12T09:29:30.331Z,9.22
2023-04-12T09:32:05.853Z,9.42
2023-04-12T09:34:34.902Z,9.55
2023-04-12T09:37:14.630Z,9.37
2023-04-12T09:39:41.162Z,9.23
2023-04-12T09:42:25.018Z,9.38
2023-04-12T09:44:57.642Z,9.45
2023-04-12T09:47:37.896Z,9.28
2023-04-12T09:50:07.285Z,9.05
2023-04-12T09:52:38.868Z,9.11
2023-04-12T09:55:10.932Z,8.95
2023-04-12T09:57:40.931Z,9.02
2023-04-12T10:00:18.146Z,9.01
2023-04-12T10:02:48.354Z,8.92
2023-04-12T10:05:21.031Z,8.93
2023-04-12T10:07:48.001Z,9.02
2023-04-12T10:10:17.211Z,8.97
2023-04-12T10:12:46.568Z,8.91
2023-04-12T10:15:15.470Z,9.07
2023-04-12T10:17:46.982Z,9.13
2023-04-12T10:20:15.785Z,9.26
2023-04-12T10:22:44.532Z,9.10
2023-04-12T10:25:15.529Z,9.21
2023-04-12T10:27:43.598Z,9.07
2023-04-12T10:30:29.717Z,9.14
2023-04-12T10:33:05.484Z,9.20
2023-04-12T10:35:56.283Z,9.16
2023-04-12T10:38:28.025Z,8.99
2023-04-12T10:41:10.494Z,9.12
2023-04-12T10:43:37.679Z,9.13
2023-04-12T10:46:06.432Z,9.31
2023-04-12T10:48:33.948Z,9.38
2023-04-12T10:51:29.926Z,9.45
2023-04-12T10:54:08.715Z,9.37
2023-04-12T10:56:38.337Z,9.38
2023-04-12T10:59:06.856Z,9.35
2023-04-12T11:02:12.458Z,9.33
2023-04-12T11:05:05.145Z,9.12
2023-04-12T11:07:54.473Z,9.31
2023-04-12T11:10:39.456Z,9.57
2023-04-12T11:13:08.882Z,9.39
2023-04-12T11:15:39.638Z,9.42
2023-04-12T11:18:12.369Z,9.48
2023-04-12T11:20:40.565Z,9.76
2023-04-12T11:23:10.639Z,9.57
2023-04-12T11:25:37.846Z,9.52
2023-04-12T11:28:11.069Z,9.76
2023-04-12T11:30:52.667Z,9.90
2023-04-12T11:33:39.039Z,10.33
2023-04-12T11:36:12.999Z,10.19
2023-04-12T11:38:39.684Z,10.18
2023-04-12T11:41:08.311Z,10.81
2023-04-12T11:43:36.200Z,11.23
2023-04-12T11:46:03.158Z,11.41
2023-04-12T11:48:29.760Z,11.16
2023-04-12T11:51:10.544Z,11.03
2023-04-12T11:53:38.037Z,11.39
2023-04-12T11:56:04.687Z,11.21
2023-04-12T11:58:31.156Z,11.08
2023-04-12T12:00:58.582Z,11.04
2023-04-12T12:03:25.527Z,11.11
2023-04-12T12:05:52.470Z,11.43
2023-04-12T12:08:19.728Z,11.29
2023-04-12T12:11:06.372Z,11.39
2023-04-12T12:13:54.403Z,11.61
2023-04-12T12:16:26.372Z,11.94
2023-04-12T12:18:53.184Z,12.17
2023-04-12T12:21:20.651Z,12.23
2023-04-12T12:23:47.723Z,12.22
2023-04-12T12:26:21.045Z,11.92
2023-04-12T12:28:52.521Z,12.16
2023-04-12T12:31:21.414Z,12.19
2023-04-12T12:33:47.963Z,12.09
2023-04-12T12:36:20.747Z,12.01
2023-04-12T12:38:49.074Z,11.75
2023-04-12T12:41:21.708Z,11.82
2023-04-12T12:43:50.001Z,11.77
2023-04-12T12:46:18.820Z,11.46
2023-04-12T12:48:46.196Z,11.62
2023-04-12T12:51:14.612Z,12.04
2023-04-12T12:53:41.566Z,11.98
2023-04-12T12:56:10.041Z,11.91
2023-04-12T12:58:38.387Z,12.30
2023-04-12T13:01:07.092Z,12.40
2023-04-12T13:03:34.182Z,12.35
2023-04-12T13:06:00.924Z,12.53
2023-04-12T13:08:28.076Z,12.34
2023-04-12T13:10:55.693Z,11.88
2023-04-12T13:13:22.140Z,12.39
2023-04-12T13:15:48.839Z,12.42
2023-04-12T13:18:16.648Z,12.01
2023-04-12T13:20:43.201Z,11.74
2023-04-12T13:23:09.803Z,11.81
2023-04-12T13:25:36.432Z,11.68
2023-04-12T13:28:02.848Z,11.81
2023-04-12T13:30:29.272Z,11.84
2023-04-12T13:32:55.713Z,11.91
2023-04-12T13:35:22.587Z,11.47
2023-04-12T13:37:49.034Z,11.37
2023-04-12T13:40:15.705Z,11.37
2023-04-12T13:42:42.217Z,11.54
2023-04-12T13:45:11.152Z,11.54
2023-04-12T13:47:38.414Z,11.50
2023-04-12T13:50:05.365Z,11.41
2023-04-12T13:52:31.848Z,11.47
2023-04-12T13:54:59.567Z,11.35
2023-04-12T13:57:26.130Z,11.33
2023-04-12T13:59:52.530Z,11.15
2023-04-12T14:02:19.040Z,11.03
2023-04-12T14:04:53.056Z,10.95
2023-04-12T14:07:20.520Z,10.96
2023-04-12T14:09:48.516Z,10.89
2023-04-12T14:12:15.413Z,10.77
2023-04-12T14:14:42.188Z,10.69
2023-04-12T14:17:08.676Z,10.70
2023-04-12T14:19:35.331Z,10.66
2023-04-12T14:22:02.424Z,10.66
2023-04-12T14:24:29.005Z,10.70
2023-04-12T14:26:57.134Z,10.62
2023-04-12T14:29:23.583Z,10.41
2023-04-12T14:31:50.047Z,10.50
2023-04-12T14:34:16.499Z,10.57
2023-04-12T14:36:42.975Z,10.43
2023-04-12T14:39:11.278Z,10.37
2023-04-12T14:41:40.197Z,10.48
2023-04-12T14:44:06.897Z,10.69
2023-04-12T14:46:33.474Z,10.83
2023-04-12T14:49:01.436Z,10.73
2023-04-12T14:51:29.584Z,10.75
2023-04-12T14:53:56.660Z,11.18
2023-04-12T14:56:27.947Z,11.31
2023-04-12T14:58:56.041Z,11.08
2023-04-12T15:01:23.661Z,10.71
2023-04-12T15:03:53.620Z,10.60
2023-04-12T15:06:23.021Z,10.44
2023-04-12T15:08:54.707Z,10.30
2023-04-12T15:11:26.222Z,10.23
2023-04-12T15:13:53.496Z,10.30
2023-04-12T15:16:19.976Z,10.52
2023-04-12T15:18:46.431Z,10.92
2023-04-12T15:21:13.007Z,10.92
2023-04-12T15:23:41.367Z,10.69
2023-04-12T15:26:09.208Z,10.44
2023-04-12T15:28:36.254Z,10.24
2023-04-12T15:31:02.758Z,10.38
2023-04-12T15:33:30.188Z,10.13
2023-04-12T15:35:56.746Z,9.78
2023-04-12T15:38:24.739Z,9.61
2023-04-12T15:40:55.930Z,9.46
2023-04-12T15:43:23.243Z,9.26
2023-04-12T15:45:52.991Z,9.04
2023-04-12T15:48:20.582Z,8.95
2023-04-12T15:50:48.586Z,8.85
2023-04-12T15:53:24.081Z,8.77
2023-04-12T15:55:57.624Z,8.70
2023-04-12T15:58:24.869Z,8.71
2023-04-12T16:00:53.009Z,8.67
2023-04-12T16:03:23.033Z,8.72
2023-04-12T16:05:53.229Z,8.65
2023-04-12T16:08:23.133Z,8.42
2023-04-12T16:10:52.735Z,8.42
2023-04-12T16:13:19.380Z,8.40
2023-04-12T16:15:46.778Z,8.24
2023-04-12T16:18:13.707Z,8.22
2023-04-12T16:20:43.038Z,8.11
2023-04-12T16:23:09.660Z,7.94
2023-04-12T16:25:36.308Z,7.83
2023-04-12T16:28:03.402Z,7.80
2023-04-12T16:30:31.979Z,7.78
2023-04-12T16:32:58.656Z,7.62
2023-04-12T16:35:25.360Z,7.75
2023-04-12T16:37:52.222Z,7.80
2023-04-12T16:40:18.774Z,7.91
2023-04-12T16:42:45.287Z,8.02
2023-04-12T16:45:13.881Z,8.05
2023-04-12T16:47:41.015Z,8.11
2023-04-12T16:50:12.688Z,8.04
2023-04-12T16:52:40.014Z,8.02
2023-04-12T16:55:06.934Z,7.84
2023-04-12T16:57:33.452Z,7.77
2023-04-12T17:00:00.506Z,7.92
2023-04-12T17:02:27.305Z,8.04
2023-04-12T17:04:53.827Z,7.89
2023-04-12T17:07:20.422Z,7.85
2023-04-12T17:09:46.908Z,7.82
2023-04-12T17:12:13.385Z,7.74
2023-04-12T17:14:39.859Z,7.69
2023-04-12T17:17:06.794Z,7.70
2023-04-12T17:19:33.613Z,7.78
2023-04-12T17:22:00.214Z,7.84
2023-04-12T17:24:26.843Z,7.87
2023-04-12T17:26:53.859Z,7.73
2023-04-12T17:29:20.475Z,7.78
2023-04-12T17:31:49.767Z,7.62
2023-04-12T17:34:18.641Z,7.55
2023-04-12T17:36:45.130Z,7.52
2023-04-12T17:39:11.601Z,7.53
2023-04-12T17:41:38.333Z,7.61
2023-04-12T17:44:05.707Z,7.60
2023-04-12T17:46:33.091Z,7.64
2023-04-12T17:49:02.561Z,7.64
2023-04-12T17:51:29.185Z,7.65
2023-04-12T17:53:58.284Z,7.65
2023-04-12T17:56:25.687Z,7.63
2023-04-12T17:58:52.308Z,7.69
2023-04-12T18:01:18.826Z,7.76
2023-04-12T18:03:45.511Z,7.77
2023-04-12T18:06:13.786Z,7.70
2023-04-12T18:08:40.429Z,7.63
2023-04-12T18:11:07.870Z,7.60
2023-04-12T18:13:34.384Z,7.59
2023-04-12T18:16:01.226Z,7.52
2023-04-12T18:18:27.749Z,7.51
2023-04-12T18:20:54.311Z,7.45
2023-04-12T18:23:21.366Z,7.33
2023-04-12T18:25:47.893Z,7.17
2023-04-12T18:28:14.824Z,7.05
2023-04-12T18:30:41.335Z,7.08
2023-04-12T18:33:08.171Z,7.06
2023-04-12T18:35:34.758Z,7.01
2023-04-12T18:38:01.281Z,6.96
2023-04-12T18:40:27.999Z,6.94
2023-04-12T18:42:54.545Z,6.91
2023-04-12T18:45:21.592Z,6.81
2023-04-12T18:47:48.062Z,6.87
2023-04-12T18:50:14.588Z,6.90
2023-04-12T18:52:41.080Z,6.94
2023-04-12T18:55:08.203Z,6.99
2023-04-12T18:57:34.670Z,6.90
2023-04-12T19:00:01.419Z,6.95
2023-04-12T19:02:28.290Z,7.05
2023-04-12T19:04:55.069Z,7.05
2023-04-12T19:07:22.183Z,7.06
2023-04-12T19:09:48.622Z,7.04
2023-04-12T19:12:15.434Z,7.04
2023-04-12T19:14:41.871Z,7.00
2023-04-12T19:17:09.409Z,7.01
2023-04-12T19:19:36.117Z,7.01
2023-04-12T19:22:02.821Z,7.01
2023-04-12T19:24:29.292Z,7.01
2023-04-12T19:26:56.028Z,7.03
2023-04-12T19:29:22.748Z,6.98
2023-04-12T19:31:49.682Z,6.97
2023-04-12T19:34:17.921Z,7.00
2023-04-12T19:36:44.798Z,6.97
2023-04-12T19:39:11.492Z,6.98
2023-04-12T19:41:38.115Z,6.97
2023-04-12T19:44:04.592Z,6.92
2023-04-12T19:46:32.662Z,6.88
2023-04-12T19:48:59.352Z,6.89
2023-04-12T19:51:26.002Z,6.88
2023-04-12T19:53:54.639Z,6.87
2023-04-12T19:56:23.330Z,6.86
2023-04-12T19:58:50.134Z,6.86
2023-04-12T20:01:16.670Z,6.82
2023-04-12T20:03:43.863Z,6.83
2023-04-12T20:06:10.901Z,6.89
2023-04-12T20:08:38.041Z,6.84
2023-04-12T20:11:04.721Z,6.84
2023-04-12T20:13:31.547Z,6.80
2023-04-12T20:16:00.748Z,6.81
2023-04-12T20:18:28.700Z,6.82
2023-04-12T20:20:57.932Z,6.77
2023-04-12T20:23:25.928Z,6.44
2023-04-12T20:25:52.404Z,5.79
2023-04-12T20:28:19.632Z,5.48
2023-04-12T20:30:47.937Z,5.43
2023-04-12T20:33:15.096Z,5.27
2023-04-12T20:35:42.462Z,4.99
2023-04-12T20:38:09.041Z,4.63
2023-04-12T20:40:35.767Z,4.43
2023-04-12T20:43:03.327Z,4.27
2023-04-12T20:45:30.093Z,4.18
2023-04-12T20:47:56.737Z,3.95
2023-04-12T20:50:24.466Z,4.05
2023-04-12T20:52:52.097Z,4.09
2023-04-12T20:55:19.081Z,4.18
2023-04-12T20:57:45.587Z,4.20
2023-04-12T21:00:17.246Z,4.16
2023-04-12T21:02:45.849Z,4.28
2023-04-12T21:05:14.835Z,4.19
2023-04-12T21:07:41.444Z,4.23
2023-04-12T21:10:12.162Z,4.25
2023-04-12T21:12:39.882Z,4.19
2023-04-12T21:15:08.072Z,4.25
2023-04-12T21:17:35.895Z,4.43
2023-04-12T21:20:13.541Z,4.47
2023-04-12T21:22:42.973Z,4.57
2023-04-12T21:25:13.514Z,4.62
2023-04-12T21:27:41.907Z,4.46
2023-04-12T21:30:11.209Z,4.36
2023-04-12T21:32:38.212Z,4.42
2023-04-12T21:35:07.140Z,4.51
2023-04-12T21:37:35.967Z,4.56
2023-04-12T21:40:07.594Z,4.61
2023-04-12T21:42:37.925Z,4.64
2023-04-12T21:45:05.794Z,4.60
2023-04-12T21:47:32.495Z,4.52
2023-04-12T21:49:59.084Z,4.48
2023-04-12T21:52:26.702Z,4.41
2023-04-12T21:54:54.651Z,4.42
2023-04-12T21:57:21.576Z,4.40
2023-04-12T21:59:48.028Z,4.41
2023-04-12T22:02:15.452Z,4.43
2023-04-12T22:04:42.297Z,4.36
2023-04-12T22:07:12.476Z,4.39
2023-04-12T22:09:40.185Z,4.38
2023-04-12T22:12:06.906Z,4.38
2023-04-12T22:14:36.728Z,4.38
2023-04-12T22:17:03.959Z,4.41
2023-04-12T22:19:30.428Z,4.43
2023-04-12T22:21:56.915Z,4.50
2023-04-12T22:24:23.496Z,4.60
2023-04-12T22:26:49.911Z,4.66
2023-04-12T22:29:17.492Z,4.66
2023-04-12T22:31:45.310Z,4.68
2023-04-12T22:34:11.759Z,4.75
2023-04-12T22:36:42.062Z,4.85
2023-04-12T22:39:15.378Z,4.98
2023-04-12T22:41:41.884Z,4.96
2023-04-12T22:44:09.116Z,5.01
2023-04-12T22:46:38.682Z,5.04
2023-04-12T22:49:05.629Z,5.02
2023-04-12T22:51:32.571Z,4.92
2023-04-12T22:53:59.360Z,4.95
2023-04-12T22:56:27.167Z,4.91
2023-04-12T22:58:53.757Z,4.97
2023-04-12T23:01:21.379Z,5.00
2023-04-12T23:03:47.870Z,5.03
2023-04-12T23:06:14.574Z,5.05
2023-04-12T23:08:41.022Z,4.99
2023-04-12T23:11:08.258Z,4.95
2023-04-12T23:13:34.841Z,4.98
2023-04-12T23:16:07.251Z,4.92
2023-04-12T23:18:33.746Z,4.93
2023-04-12T23:21:01.514Z,4.95
2023-04-12T23:23:28.319Z,4.96
2023-04-12T23:25:55.155Z,5.02
2023-04-12T23:28:21.947Z,5.05
2023-04-12T23:30:50.035Z,5.03
2023-04-12T23:33:18.457Z,5.01
2023-04-12T23:35:46.946Z,5.02
2023-04-12T23:38:23.112Z,5.04
2023-04-12T23:40:53.660Z,5.08
2023-04-12T23:43:21.573Z,5.07
2023-04-12T23:45:48.558Z,5.00
2023-04-12T23:48:16.577Z,4.99
2023-04-12T23:50:45.844Z,4.99
2023-04-12T23:53:12.859Z,4.99
2023-04-12T23:55:39.343Z,5.02
2023-04-12T23:58:05.868Z,5.07
